sensor_id;sensor_type;location;lat;lon;timestamp;temperature;humidity
22813;DHT22;11573;51.334;3.244;2023-05-10T00:02:08;12.50;99.90
22813;DHT22;11573;51.334;3.244;2023-05-10T00:04:35;12.50;99.90
22813;DHT22;11573;51.334;3.244;2023-05-10T00:07:02;12.50;99.90
22813;DHT22;11573;51.334;3.244;2023-05-10T00:09:29;12.50;99.90
22813;DHT22;11573;51.334;3.244;2023-05-10T00:11:56;12.50;99.90
22813;DHT22;11573;51.334;3.244;2023-05-10T00:14:25;12.50;99.90
22813;DHT22;11573;51.334;3.244;2023-05-10T00:16:51;12.50;99.90
22813;DHT22;11573;51.334;3.244;2023-05-10T00:19:19;12.50;99.90
22813;DHT22;11573;51.334;3.244;2023-05-10T00:21:46;12.60;99.90
22813;DHT22;11573;51.334;3.244;2023-05-10T00:24:13;12.60;99.90
22813;DHT22;11573;51.334;3.244;2023-05-10T00:26:40;12.60;99.90
22813;DHT22;11573;51.334;3.244;2023-05-10T00:29:08;12.60;99.90
22813;DHT22;11573;51.334;3.244;2023-05-10T00:31:35;12.50;99.90
22813;DHT22;11573;51.334;3.244;2023-05-10T00:34:02;12.50;99.90
22813;DHT22;11573;51.334;3.244;2023-05-10T00:36:29;12.50;99.90
22813;DHT22;11573;51.334;3.244;2023-05-10T00:38:57;12.40;99.90
22813;DHT22;11573;51.334;3.244;2023-05-10T00:41:24;12.40;99.90
22813;DHT22;11573;51.334;3.244;2023-05-10T00:43:53;12.50;99.90
22813;DHT22;11573;51.334;3.244;2023-05-10T00:46:20;12.50;99.90
22813;DHT22;11573;51.334;3.244;2023-05-10T00:48:49;12.50;99.90
22813;DHT22;11573;51.334;3.244;2023-05-10T00:51:16;12.60;99.90
22813;DHT22;11573;51.334;3.244;2023-05-10T00:53:45;12.60;99.90
22813;DHT22;11573;51.334;3.244;2023-05-10T00:56:12;12.60;99.90
22813;DHT22;11573;51.334;3.244;2023-05-10T00:58:40;12.60;99.90
22813;DHT22;11573;51.334;3.244;2023-05-10T01:01:08;12.60;99.90
22813;DHT22;11573;51.334;3.244;2023-05-10T01:03:36;12.70;99.90
22813;DHT22;11573;51.334;3.244;2023-05-10T01:06:04;12.70;99.90
22813;DHT22;11573;51.334;3.244;2023-05-10T01:08:31;12.60;99.90
22813;DHT22;11573;51.334;3.244;2023-05-10T01:10:58;12.60;99.90
22813;DHT22;11573;51.334;3.244;2023-05-10T01:13:39;12.60;99.90
22813;DHT22;11573;51.334;3.244;2023-05-10T01:16:06;12.60;99.90
22813;DHT22;11573;51.334;3.244;2023-05-10T01:18:39;12.60;99.90
22813;DHT22;11573;51.334;3.244;2023-05-10T01:21:53;12.70;99.90
22813;DHT22;11573;51.334;3.244;2023-05-10T01:32:48;12.80;99.90
22813;DHT22;11573;51.334;3.244;2023-05-10T01:35:31;12.80;99.90
22813;DHT22;11573;51.334;3.244;2023-05-10T01:38:07;12.70;99.90
22813;DHT22;11573;51.334;3.244;2023-05-10T01:43:26;12.80;99.90
22813;DHT22;11573;51.334;3.244;2023-05-10T01:46:07;12.80;99.90
22813;DHT22;11573;51.334;3.244;2023-05-10T01:48:46;12.80;99.90
22813;DHT22;11573;51.334;3.244;2023-05-10T01:51:21;12.80;99.90
22813;DHT22;11573;51.334;3.244;2023-05-10T01:53:49;12.80;99.90
22813;DHT22;11573;51.334;3.244;2023-05-10T01:56:19;12.80;99.90
22813;DHT22;11573;51.334;3.244;2023-05-10T01:58:51;12.80;99.90
22813;DHT22;11573;51.334;3.244;2023-05-10T02:01:20;12.90;99.90
22813;DHT22;11573;51.334;3.244;2023-05-10T02:03:50;12.90;99.90
22813;DHT22;11573;51.334;3.244;2023-05-10T02:06:20;12.90;99.90
22813;DHT22;11573;51.334;3.244;2023-05-10T02:08:49;12.90;99.90
22813;DHT22;11573;51.334;3.244;2023-05-10T02:11:18;12.80;99.90
22813;DHT22;11573;51.334;3.244;2023-05-10T02:13:47;12.80;99.90
22813;DHT22;11573;51.334;3.244;2023-05-10T02:16:16;12.90;99.90
22813;DHT22;11573;51.334;3.244;2023-05-10T02:18:45;12.80;99.90
22813;DHT22;11573;51.334;3.244;2023-05-10T02:21:15;12.80;99.90
22813;DHT22;11573;51.334;3.244;2023-05-10T02:23:45;12.70;99.90
22813;DHT22;11573;51.334;3.244;2023-05-10T02:26:14;12.70;99.90
22813;DHT22;11573;51.334;3.244;2023-05-10T02:28:42;12.70;99.90
22813;DHT22;11573;51.334;3.244;2023-05-10T02:31:09;12.70;99.90
22813;DHT22;11573;51.334;3.244;2023-05-10T02:33:39;12.70;99.90
22813;DHT22;11573;51.334;3.244;2023-05-10T02:36:08;12.70;99.90
22813;DHT22;11573;51.334;3.244;2023-05-10T02:38:36;12.70;99.90
22813;DHT22;11573;51.334;3.244;2023-05-10T02:41:04;12.70;99.90
22813;DHT22;11573;51.334;3.244;2023-05-10T02:43:33;12.60;99.90
22813;DHT22;11573;51.334;3.244;2023-05-10T02:46:02;12.50;99.90
22813;DHT22;11573;51.334;3.244;2023-05-10T02:48:29;12.50;99.90
22813;DHT22;11573;51.334;3.244;2023-05-10T02:51:02;12.50;99.90
22813;DHT22;11573;51.334;3.244;2023-05-10T02:53:32;12.50;99.90
22813;DHT22;11573;51.334;3.244;2023-05-10T02:56:04;12.50;99.90
22813;DHT22;11573;51.334;3.244;2023-05-10T02:58:33;12.40;99.90
22813;DHT22;11573;51.334;3.244;2023-05-10T03:01:00;12.40;99.90
22813;DHT22;11573;51.334;3.244;2023-05-10T03:03:27;12.50;99.90
22813;DHT22;11573;51.334;3.244;2023-05-10T03:05:54;12.50;99.90
22813;DHT22;11573;51.334;3.244;2023-05-10T03:08:23;12.50;99.90
22813;DHT22;11573;51.334;3.244;2023-05-10T03:13:39;12.40;99.90
22813;DHT22;11573;51.334;3.244;2023-05-10T03:16:12;12.30;99.90
22813;DHT22;11573;51.334;3.244;2023-05-10T03:18:56;12.30;99.90
22813;DHT22;11573;51.334;3.244;2023-05-10T03:21:29;12.30;99.90
22813;DHT22;11573;51.334;3.244;2023-05-10T03:23:59;12.40;99.90
22813;DHT22;11573;51.334;3.244;2023-05-10T03:26:31;12.40;99.90
22813;DHT22;11573;51.334;3.244;2023-05-10T03:29:06;12.40;99.90
22813;DHT22;11573;51.334;3.244;2023-05-10T03:31:34;12.30;99.90
22813;DHT22;11573;51.334;3.244;2023-05-10T03:34:01;12.40;99.90
22813;DHT22;11573;51.334;3.244;2023-05-10T03:36:28;12.40;99.90
22813;DHT22;11573;51.334;3.244;2023-05-10T03:38:55;12.30;99.90
22813;DHT22;11573;51.334;3.244;2023-05-10T03:41:22;12.40;99.90
22813;DHT22;11573;51.334;3.244;2023-05-10T03:43:49;12.30;99.90
22813;DHT22;11573;51.334;3.244;2023-05-10T03:46:16;12.30;99.90
22813;DHT22;11573;51.334;3.244;2023-05-10T03:48:43;12.30;99.90
22813;DHT22;11573;51.334;3.244;2023-05-10T03:51:10;12.30;99.90
22813;DHT22;11573;51.334;3.244;2023-05-10T03:53:38;12.30;99.90
22813;DHT22;11573;51.334;3.244;2023-05-10T03:56:06;12.30;99.90
22813;DHT22;11573;51.334;3.244;2023-05-10T03:58:33;12.30;99.90
22813;DHT22;11573;51.334;3.244;2023-05-10T04:00:59;12.40;99.90
22813;DHT22;11573;51.334;3.244;2023-05-10T04:03:26;12.40;99.90
22813;DHT22;11573;51.334;3.244;2023-05-10T04:06:03;12.40;99.90
22813;DHT22;11573;51.334;3.244;2023-05-10T04:08:30;12.50;99.90
22813;DHT22;11573;51.334;3.244;2023-05-10T04:11:08;12.50;99.90
22813;DHT22;11573;51.334;3.244;2023-05-10T04:13:35;12.50;99.90
22813;DHT22;11573;51.334;3.244;2023-05-10T04:16:02;12.50;99.90
22813;DHT22;11573;51.334;3.244;2023-05-10T04:18:30;12.50;99.90
22813;DHT22;11573;51.334;3.244;2023-05-10T04:20:57;12.50;99.90
22813;DHT22;11573;51.334;3.244;2023-05-10T04:23:24;12.50;99.90
22813;DHT22;11573;51.334;3.244;2023-05-10T04:25:51;12.60;99.90
22813;DHT22;11573;51.334;3.244;2023-05-10T04:28:18;12.60;99.90
22813;DHT22;11573;51.334;3.244;2023-05-10T04:30:45;12.60;99.90
22813;DHT22;11573;51.334;3.244;2023-05-10T04:33:12;12.50;99.90
22813;DHT22;11573;51.334;3.244;2023-05-10T04:35:39;12.70;99.90
22813;DHT22;11573;51.334;3.244;2023-05-10T04:38:06;12.80;99.90
22813;DHT22;11573;51.334;3.244;2023-05-10T04:40:33;12.90;99.90
22813;DHT22;11573;51.334;3.244;2023-05-10T04:43:01;12.90;99.90
22813;DHT22;11573;51.334;3.244;2023-05-10T04:45:28;13.10;99.90
22813;DHT22;11573;51.334;3.244;2023-05-10T04:47:54;13.20;99.90
22813;DHT22;11573;51.334;3.244;2023-05-10T04:50:22;13.90;99.90
22813;DHT22;11573;51.334;3.244;2023-05-10T04:52:48;14.70;99.90
22813;DHT22;11573;51.334;3.244;2023-05-10T04:55:15;15.30;99.90
22813;DHT22;11573;51.334;3.244;2023-05-10T04:57:42;16.30;99.90
22813;DHT22;11573;51.334;3.244;2023-05-10T05:00:09;17.30;99.90
22813;DHT22;11573;51.334;3.244;2023-05-10T05:02:37;17.40;99.90
22813;DHT22;11573;51.334;3.244;2023-05-10T05:05:04;17.90;99.90
22813;DHT22;11573;51.334;3.244;2023-05-10T05:07:31;18.50;99.90
22813;DHT22;11573;51.334;3.244;2023-05-10T05:09:58;18.20;99.90
22813;DHT22;11573;51.334;3.244;2023-05-10T05:12:25;17.50;99.90
22813;DHT22;11573;51.334;3.244;2023-05-10T05:14:52;16.70;99.90
22813;DHT22;11573;51.334;3.244;2023-05-10T05:17:19;15.90;99.90
22813;DHT22;11573;51.334;3.244;2023-05-10T05:19:46;15.50;99.90
22813;DHT22;11573;51.334;3.244;2023-05-10T05:22:12;15.10;99.90
22813;DHT22;11573;51.334;3.244;2023-05-10T05:24:39;14.70;99.90
22813;DHT22;11573;51.334;3.244;2023-05-10T05:27:06;14.40;99.90
22813;DHT22;11573;51.334;3.244;2023-05-10T05:29:33;14.30;99.90
22813;DHT22;11573;51.334;3.244;2023-05-10T05:32:00;14.10;99.90
22813;DHT22;11573;51.334;3.244;2023-05-10T05:34:27;14.10;99.90
22813;DHT22;11573;51.334;3.244;2023-05-10T05:36:54;14.10;99.90
22813;DHT22;11573;51.334;3.244;2023-05-10T05:39:21;14.30;99.90
22813;DHT22;11573;51.334;3.244;2023-05-10T05:41:49;14.60;99.90
22813;DHT22;11573;51.334;3.244;2023-05-10T05:44:16;14.80;99.90
22813;DHT22;11573;51.334;3.244;2023-05-10T05:46:42;14.90;99.90
22813;DHT22;11573;51.334;3.244;2023-05-10T05:49:09;15.00;99.90
22813;DHT22;11573;51.334;3.244;2023-05-10T05:51:36;14.90;99.90
22813;DHT22;11573;51.334;3.244;2023-05-10T05:54:03;15.00;99.90
22813;DHT22;11573;51.334;3.244;2023-05-10T05:56:31;15.10;99.90
22813;DHT22;11573;51.334;3.244;2023-05-10T05:58:57;15.30;99.90
22813;DHT22;11573;51.334;3.244;2023-05-10T06:01:24;15.30;99.90
22813;DHT22;11573;51.334;3.244;2023-05-10T06:03:51;15.40;99.90
22813;DHT22;11573;51.334;3.244;2023-05-10T06:06:19;15.30;99.90
22813;DHT22;11573;51.334;3.244;2023-05-10T06:08:46;15.40;99.90
22813;DHT22;11573;51.334;3.244;2023-05-10T06:11:13;15.50;99.90
22813;DHT22;11573;51.334;3.244;2023-05-10T06:13:40;15.50;99.90
22813;DHT22;11573;51.334;3.244;2023-05-10T06:16:06;15.50;99.90
22813;DHT22;11573;51.334;3.244;2023-05-10T06:18:34;15.20;99.90
22813;DHT22;11573;51.334;3.244;2023-05-10T06:21:01;15.00;99.90
22813;DHT22;11573;51.334;3.244;2023-05-10T06:23:28;14.80;99.90
22813;DHT22;11573;51.334;3.244;2023-05-10T06:25:55;14.70;99.90
22813;DHT22;11573;51.334;3.244;2023-05-10T06:28:22;14.70;99.90
22813;DHT22;11573;51.334;3.244;2023-05-10T06:30:49;14.70;99.90
22813;DHT22;11573;51.334;3.244;2023-05-10T06:33:16;14.80;99.90
22813;DHT22;11573;51.334;3.244;2023-05-10T06:35:43;15.20;99.90
22813;DHT22;11573;51.334;3.244;2023-05-10T06:38:10;15.30;99.90
22813;DHT22;11573;51.334;3.244;2023-05-10T06:40:41;15.50;99.90
22813;DHT22;11573;51.334;3.244;2023-05-10T06:43:09;15.90;99.90
22813;DHT22;11573;51.334;3.244;2023-05-10T06:45:36;15.90;99.90
22813;DHT22;11573;51.334;3.244;2023-05-10T06:48:03;16.00;99.90
22813;DHT22;11573;51.334;3.244;2023-05-10T06:50:30;15.80;99.90
22813;DHT22;11573;51.334;3.244;2023-05-10T06:52:57;15.70;99.90
22813;DHT22;11573;51.334;3.244;2023-05-10T06:55:24;15.50;99.90
22813;DHT22;11573;51.334;3.244;2023-05-10T06:57:52;15.40;99.90
22813;DHT22;11573;51.334;3.244;2023-05-10T07:00:19;15.40;99.90
22813;DHT22;11573;51.334;3.244;2023-05-10T07:02:47;15.50;99.90
22813;DHT22;11573;51.334;3.244;2023-05-10T07:05:14;15.80;99.90
22813;DHT22;11573;51.334;3.244;2023-05-10T07:07:42;15.80;99.90
22813;DHT22;11573;51.334;3.244;2023-05-10T07:10:09;16.00;99.90
22813;DHT22;11573;51.334;3.244;2023-05-10T07:12:36;16.50;99.90
22813;DHT22;11573;51.334;3.244;2023-05-10T07:15:04;16.50;99.90
22813;DHT22;11573;51.334;3.244;2023-05-10T07:17:31;16.30;99.90
22813;DHT22;11573;51.334;3.244;2023-05-10T07:20:00;16.20;99.90
22813;DHT22;11573;51.334;3.244;2023-05-10T07:22:27;16.30;99.90
22813;DHT22;11573;51.334;3.244;2023-05-10T07:24:54;16.30;99.90
22813;DHT22;11573;51.334;3.244;2023-05-10T07:27:21;16.60;99.90
22813;DHT22;11573;51.334;3.244;2023-05-10T07:29:48;16.90;99.90
22813;DHT22;11573;51.334;3.244;2023-05-10T07:32:15;16.90;99.90
22813;DHT22;11573;51.334;3.244;2023-05-10T07:34:42;16.80;99.90
22813;DHT22;11573;51.334;3.244;2023-05-10T07:37:09;16.90;99.90
22813;DHT22;11573;51.334;3.244;2023-05-10T07:39:36;16.90;99.90
22813;DHT22;11573;51.334;3.244;2023-05-10T07:42:03;16.80;99.90
22813;DHT22;11573;51.334;3.244;2023-05-10T07:44:30;16.70;99.90
22813;DHT22;11573;51.334;3.244;2023-05-10T07:46:56;16.60;99.90
22813;DHT22;11573;51.334;3.244;2023-05-10T07:49:23;16.50;99.90
22813;DHT22;11573;51.334;3.244;2023-05-10T07:51:53;16.80;99.90
22813;DHT22;11573;51.334;3.244;2023-05-10T07:54:20;17.00;99.90
22813;DHT22;11573;51.334;3.244;2023-05-10T07:56:47;17.00;99.90
22813;DHT22;11573;51.334;3.244;2023-05-10T07:59:17;17.10;99.90
22813;DHT22;11573;51.334;3.244;2023-05-10T08:01:44;17.40;99.90
22813;DHT22;11573;51.334;3.244;2023-05-10T08:04:11;17.40;99.90
22813;DHT22;11573;51.334;3.244;2023-05-10T08:06:39;17.30;99.90
22813;DHT22;11573;51.334;3.244;2023-05-10T08:09:07;17.20;99.90
22813;DHT22;11573;51.334;3.244;2023-05-10T08:11:34;17.10;99.90
22813;DHT22;11573;51.334;3.244;2023-05-10T08:14:01;17.20;99.90
22813;DHT22;11573;51.334;3.244;2023-05-10T08:16:28;17.00;99.90
22813;DHT22;11573;51.334;3.244;2023-05-10T08:18:56;17.10;99.90
22813;DHT22;11573;51.334;3.244;2023-05-10T08:21:22;17.50;99.90
22813;DHT22;11573;51.334;3.244;2023-05-10T08:23:49;17.60;99.90
22813;DHT22;11573;51.334;3.244;2023-05-10T08:26:16;17.50;99.90
22813;DHT22;11573;51.334;3.244;2023-05-10T08:28:43;17.40;99.90
22813;DHT22;11573;51.334;3.244;2023-05-10T08:31:11;17.70;99.90
22813;DHT22;11573;51.334;3.244;2023-05-10T08:33:38;17.70;99.90
22813;DHT22;11573;51.334;3.244;2023-05-10T08:36:08;17.40;99.90
22813;DHT22;11573;51.334;3.244;2023-05-10T08:38:35;17.20;99.90
22813;DHT22;11573;51.334;3.244;2023-05-10T08:41:02;17.20;99.90
22813;DHT22;11573;51.334;3.244;2023-05-10T08:43:30;17.10;99.90
22813;DHT22;11573;51.334;3.244;2023-05-10T08:46:00;17.00;99.90
22813;DHT22;11573;51.334;3.244;2023-05-10T08:48:30;17.10;99.90
22813;DHT22;11573;51.334;3.244;2023-05-10T08:50:58;16.90;99.90
22813;DHT22;11573;51.334;3.244;2023-05-10T08:53:28;16.70;99.90
22813;DHT22;11573;51.334;3.244;2023-05-10T08:55:57;16.20;99.90
22813;DHT22;11573;51.334;3.244;2023-05-10T08:58:25;16.10;99.90
22813;DHT22;11573;51.334;3.244;2023-05-10T09:00:52;16.30;99.90
22813;DHT22;11573;51.334;3.244;2023-05-10T09:03:20;16.40;99.90
22813;DHT22;11573;51.334;3.244;2023-05-10T09:05:48;16.60;99.90
22813;DHT22;11573;51.334;3.244;2023-05-10T09:08:15;16.90;99.90
22813;DHT22;11573;51.334;3.244;2023-05-10T09:10:44;17.20;99.90
22813;DHT22;11573;51.334;3.244;2023-05-10T09:13:14;17.00;99.90
22813;DHT22;11573;51.334;3.244;2023-05-10T09:15:43;17.10;99.90
22813;DHT22;11573;51.334;3.244;2023-05-10T09:18:10;17.20;99.90
22813;DHT22;11573;51.334;3.244;2023-05-10T09:20:37;17.00;99.90
22813;DHT22;11573;51.334;3.244;2023-05-10T09:23:04;17.10;99.90
22813;DHT22;11573;51.334;3.244;2023-05-10T09:25:32;17.20;99.90
22813;DHT22;11573;51.334;3.244;2023-05-10T09:28:02;17.50;99.90
22813;DHT22;11573;51.334;3.244;2023-05-10T09:30:32;17.20;99.90
22813;DHT22;11573;51.334;3.244;2023-05-10T09:32:59;17.20;99.90
22813;DHT22;11573;51.334;3.244;2023-05-10T09:35:28;17.20;99.90
22813;DHT22;11573;51.334;3.244;2023-05-10T09:38:02;17.20;99.90
22813;DHT22;11573;51.334;3.244;2023-05-10T09:40:30;17.20;99.90
22813;DHT22;11573;51.334;3.244;2023-05-10T09:45:29;17.60;99.90
22813;DHT22;11573;51.334;3.244;2023-05-10T09:47:57;17.70;99.90
22813;DHT22;11573;51.334;3.244;2023-05-10T09:50:25;17.70;99.90
22813;DHT22;11573;51.334;3.244;2023-05-10T09:52:54;17.80;99.90
22813;DHT22;11573;51.334;3.244;2023-05-10T09:55:44;17.90;99.90
22813;DHT22;11573;51.334;3.244;2023-05-10T09:58:13;18.00;99.90
22813;DHT22;11573;51.334;3.244;2023-05-10T10:00:42;17.70;99.90
22813;DHT22;11573;51.334;3.244;2023-05-10T10:03:15;17.80;99.90
22813;DHT22;11573;51.334;3.244;2023-05-10T10:05:43;17.70;99.90
22813;DHT22;11573;51.334;3.244;2023-05-10T10:08:11;17.30;99.90
22813;DHT22;11573;51.334;3.244;2023-05-10T10:10:39;17.20;99.90
22813;DHT22;11573;51.334;3.244;2023-05-10T10:13:12;17.00;99.90
22813;DHT22;11573;51.334;3.244;2023-05-10T10:15:39;17.10;99.90
22813;DHT22;11573;51.334;3.244;2023-05-10T10:18:06;17.30;99.90
22813;DHT22;11573;51.334;3.244;2023-05-10T10:20:37;17.30;99.90
22813;DHT22;11573;51.334;3.244;2023-05-10T10:23:04;17.40;99.90
22813;DHT22;11573;51.334;3.244;2023-05-10T10:25:31;17.70;99.90
22813;DHT22;11573;51.334;3.244;2023-05-10T10:28:11;17.80;99.90
22813;DHT22;11573;51.334;3.244;2023-05-10T10:30:46;18.10;99.90
22813;DHT22;11573;51.334;3.244;2023-05-10T10:33:36;18.40;99.90
22813;DHT22;11573;51.334;3.244;2023-05-10T10:36:06;18.80;99.90
22813;DHT22;11573;51.334;3.244;2023-05-10T10:41:10;18.70;99.90
22813;DHT22;11573;51.334;3.244;2023-05-10T10:43:38;18.50;99.90
22813;DHT22;11573;51.334;3.244;2023-05-10T10:46:16;18.70;99.90
22813;DHT22;11573;51.334;3.244;2023-05-10T10:48:49;18.90;99.90
22813;DHT22;11573;51.334;3.244;2023-05-10T10:51:16;18.80;99.90
22813;DHT22;11573;51.334;3.244;2023-05-10T10:53:43;18.90;99.90
22813;DHT22;11573;51.334;3.244;2023-05-10T10:56:12;18.70;99.90
22813;DHT22;11573;51.334;3.244;2023-05-10T10:58:50;18.60;99.90
22813;DHT22;11573;51.334;3.244;2023-05-10T11:01:20;18.70;99.90
22813;DHT22;11573;51.334;3.244;2023-05-10T11:06:34;18.40;99.90
22813;DHT22;11573;51.334;3.244;2023-05-10T11:09:09;18.40;99.90
22813;DHT22;11573;51.334;3.244;2023-05-10T11:11:43;18.50;99.90
22813;DHT22;11573;51.334;3.244;2023-05-10T11:14:20;18.70;99.90
22813;DHT22;11573;51.334;3.244;2023-05-10T11:16:47;18.70;99.90
22813;DHT22;11573;51.334;3.244;2023-05-10T11:19:15;18.30;99.90
22813;DHT22;11573;51.334;3.244;2023-05-10T11:22:12;17.90;99.90
22813;DHT22;11573;51.334;3.244;2023-05-10T11:24:37;17.80;99.90
22813;DHT22;11573;51.334;3.244;2023-05-10T11:27:05;17.60;99.90
22813;DHT22;11573;51.334;3.244;2023-05-10T11:29:33;17.30;99.90
22813;DHT22;11573;51.334;3.244;2023-05-10T11:32:00;17.30;99.90
22813;DHT22;11573;51.334;3.244;2023-05-10T11:34:31;17.30;99.90
22813;DHT22;11573;51.334;3.244;2023-05-10T11:37:00;17.20;99.90
22813;DHT22;11573;51.334;3.244;2023-05-10T11:39:29;17.40;99.90
22813;DHT22;11573;51.334;3.244;2023-05-10T11:41:57;17.50;99.90
22813;DHT22;11573;51.334;3.244;2023-05-10T11:44:29;17.90;99.90
22813;DHT22;11573;51.334;3.244;2023-05-10T11:47:01;18.20;99.90
22813;DHT22;11573;51.334;3.244;2023-05-10T11:49:28;18.20;99.90
22813;DHT22;11573;51.334;3.244;2023-05-10T11:52:07;18.20;99.90
22813;DHT22;11573;51.334;3.244;2023-05-10T11:54:34;18.10;99.90
22813;DHT22;11573;51.334;3.244;2023-05-10T11:57:01;17.90;99.90
22813;DHT22;11573;51.334;3.244;2023-05-10T11:59:29;18.10;99.90
22813;DHT22;11573;51.334;3.244;2023-05-10T12:01:56;18.20;99.90
22813;DHT22;11573;51.334;3.244;2023-05-10T12:04:23;18.50;99.90
22813;DHT22;11573;51.334;3.244;2023-05-10T12:06:50;18.60;99.90
22813;DHT22;11573;51.334;3.244;2023-05-10T12:09:17;18.90;99.90
22813;DHT22;11573;51.334;3.244;2023-05-10T12:11:57;19.10;99.90
22813;DHT22;11573;51.334;3.244;2023-05-10T12:14:24;19.00;99.90
22813;DHT22;11573;51.334;3.244;2023-05-10T12:16:51;18.50;99.90
22813;DHT22;11573;51.334;3.244;2023-05-10T12:19:19;18.60;99.90
22813;DHT22;11573;51.334;3.244;2023-05-10T12:21:49;18.60;99.90
22813;DHT22;11573;51.334;3.244;2023-05-10T12:24:16;18.40;99.90
22813;DHT22;11573;51.334;3.244;2023-05-10T12:26:47;18.50;99.90
22813;DHT22;11573;51.334;3.244;2023-05-10T12:29:16;19.00;99.90
22813;DHT22;11573;51.334;3.244;2023-05-10T12:31:54;19.20;99.90
22813;DHT22;11573;51.334;3.244;2023-05-10T12:37:00;19.40;99.90
22813;DHT22;11573;51.334;3.244;2023-05-10T12:39:42;19.10;99.90
22813;DHT22;11573;51.334;3.244;2023-05-10T12:42:10;19.10;99.90
22813;DHT22;11573;51.334;3.244;2023-05-10T12:44:37;19.40;99.90
22813;DHT22;11573;51.334;3.244;2023-05-10T12:47:04;19.60;99.90
22813;DHT22;11573;51.334;3.244;2023-05-10T12:49:31;20.20;99.90
22813;DHT22;11573;51.334;3.244;2023-05-10T12:51:58;19.60;99.90
22813;DHT22;11573;51.334;3.244;2023-05-10T12:54:25;19.00;99.90
22813;DHT22;11573;51.334;3.244;2023-05-10T12:56:52;19.00;99.90
22813;DHT22;11573;51.334;3.244;2023-05-10T12:59:19;19.30;99.90
22813;DHT22;11573;51.334;3.244;2023-05-10T13:01:46;19.10;99.90
22813;DHT22;11573;51.334;3.244;2023-05-10T13:04:13;19.40;99.90
22813;DHT22;11573;51.334;3.244;2023-05-10T13:06:40;19.30;99.90
22813;DHT22;11573;51.334;3.244;2023-05-10T13:09:07;19.20;99.90
22813;DHT22;11573;51.334;3.244;2023-05-10T13:11:34;18.90;99.90
22813;DHT22;11573;51.334;3.244;2023-05-10T13:14:01;18.40;99.90
22813;DHT22;11573;51.334;3.244;2023-05-10T13:16:29;17.90;99.90
22813;DHT22;11573;51.334;3.244;2023-05-10T13:18:56;17.70;99.90
22813;DHT22;11573;51.334;3.244;2023-05-10T13:21:24;17.70;99.90
22813;DHT22;11573;51.334;3.244;2023-05-10T13:23:51;18.20;99.90
22813;DHT22;11573;51.334;3.244;2023-05-10T13:26:18;18.20;99.90
22813;DHT22;11573;51.334;3.244;2023-05-10T13:28:45;18.10;99.90
22813;DHT22;11573;51.334;3.244;2023-05-10T13:31:12;17.80;99.90
22813;DHT22;11573;51.334;3.244;2023-05-10T13:33:39;17.80;99.90
22813;DHT22;11573;51.334;3.244;2023-05-10T13:36:06;17.70;99.90
22813;DHT22;11573;51.334;3.244;2023-05-10T13:38:33;17.50;99.90
22813;DHT22;11573;51.334;3.244;2023-05-10T13:41:00;17.50;99.90
22813;DHT22;11573;51.334;3.244;2023-05-10T13:43:29;17.70;99.90
22813;DHT22;11573;51.334;3.244;2023-05-10T13:45:56;18.20;99.90
22813;DHT22;11573;51.334;3.244;2023-05-10T13:48:23;17.90;99.90
22813;DHT22;11573;51.334;3.244;2023-05-10T13:50:50;18.10;99.90
22813;DHT22;11573;51.334;3.244;2023-05-10T13:53:17;18.60;99.90
22813;DHT22;11573;51.334;3.244;2023-05-10T13:55:44;18.80;99.90
22813;DHT22;11573;51.334;3.244;2023-05-10T13:58:10;18.90;99.90
22813;DHT22;11573;51.334;3.244;2023-05-10T14:00:38;18.90;99.90
22813;DHT22;11573;51.334;3.244;2023-05-10T14:03:04;19.00;99.90
22813;DHT22;11573;51.334;3.244;2023-05-10T14:05:33;18.80;99.90
22813;DHT22;11573;51.334;3.244;2023-05-10T14:08:00;18.90;99.90
22813;DHT22;11573;51.334;3.244;2023-05-10T14:10:26;18.50;99.90
22813;DHT22;11573;51.334;3.244;2023-05-10T14:12:53;18.50;99.90
22813;DHT22;11573;51.334;3.244;2023-05-10T14:15:20;18.40;99.90
22813;DHT22;11573;51.334;3.244;2023-05-10T14:17:47;18.10;99.90
22813;DHT22;11573;51.334;3.244;2023-05-10T14:20:14;17.90;99.90
22813;DHT22;11573;51.334;3.244;2023-05-10T14:22:41;18.30;99.90
22813;DHT22;11573;51.334;3.244;2023-05-10T14:25:08;18.30;99.90
22813;DHT22;11573;51.334;3.244;2023-05-10T14:27:35;18.10;99.90
22813;DHT22;11573;51.334;3.244;2023-05-10T14:30:03;18.30;99.90
22813;DHT22;11573;51.334;3.244;2023-05-10T14:32:30;18.60;99.90
22813;DHT22;11573;51.334;3.244;2023-05-10T14:34:58;18.40;99.90
22813;DHT22;11573;51.334;3.244;2023-05-10T14:37:26;18.70;99.90
22813;DHT22;11573;51.334;3.244;2023-05-10T14:39:53;19.00;99.90
22813;DHT22;11573;51.334;3.244;2023-05-10T14:42:20;18.90;99.90
22813;DHT22;11573;51.334;3.244;2023-05-10T14:44:47;19.10;99.90
22813;DHT22;11573;51.334;3.244;2023-05-10T14:47:14;18.90;99.90
22813;DHT22;11573;51.334;3.244;2023-05-10T14:49:41;19.00;99.90
22813;DHT22;11573;51.334;3.244;2023-05-10T14:52:08;19.00;99.90
22813;DHT22;11573;51.334;3.244;2023-05-10T14:54:35;18.90;99.90
22813;DHT22;11573;51.334;3.244;2023-05-10T14:57:02;18.70;99.90
22813;DHT22;11573;51.334;3.244;2023-05-10T14:59:29;18.60;99.90
22813;DHT22;11573;51.334;3.244;2023-05-10T15:01:56;18.90;99.90
22813;DHT22;11573;51.334;3.244;2023-05-10T15:04:24;18.80;99.90
22813;DHT22;11573;51.334;3.244;2023-05-10T15:06:54;18.50;99.90
22813;DHT22;11573;51.334;3.244;2023-05-10T15:09:26;18.60;99.90
22813;DHT22;11573;51.334;3.244;2023-05-10T15:11:55;18.70;99.90
22813;DHT22;11573;51.334;3.244;2023-05-10T15:14:22;18.90;99.90
22813;DHT22;11573;51.334;3.244;2023-05-10T15:16:49;18.70;99.90
22813;DHT22;11573;51.334;3.244;2023-05-10T15:19:16;18.70;99.90
22813;DHT22;11573;51.334;3.244;2023-05-10T15:21:43;18.30;99.90
22813;DHT22;11573;51.334;3.244;2023-05-10T15:24:11;17.90;99.90
22813;DHT22;11573;51.334;3.244;2023-05-10T15:26:38;18.00;99.90
22813;DHT22;11573;51.334;3.244;2023-05-10T15:29:05;18.30;99.90
22813;DHT22;11573;51.334;3.244;2023-05-10T15:31:31;18.40;99.90
22813;DHT22;11573;51.334;3.244;2023-05-10T15:34:01;18.60;99.90
22813;DHT22;11573;51.334;3.244;2023-05-10T15:36:28;18.50;99.90
22813;DHT22;11573;51.334;3.244;2023-05-10T15:38:55;18.40;99.90
22813;DHT22;11573;51.334;3.244;2023-05-10T15:41:22;18.80;99.90
22813;DHT22;11573;51.334;3.244;2023-05-10T15:43:50;18.90;99.90
22813;DHT22;11573;51.334;3.244;2023-05-10T15:46:17;19.10;99.90
22813;DHT22;11573;51.334;3.244;2023-05-10T15:48:44;19.40;99.90
22813;DHT22;11573;51.334;3.244;2023-05-10T15:51:10;19.10;99.90
22813;DHT22;11573;51.334;3.244;2023-05-10T15:53:38;19.10;99.90
22813;DHT22;11573;51.334;3.244;2023-05-10T15:56:15;18.90;99.90
22813;DHT22;11573;51.334;3.244;2023-05-10T15:58:42;18.60;99.90
22813;DHT22;11573;51.334;3.244;2023-05-10T16:01:09;18.60;99.90
22813;DHT22;11573;51.334;3.244;2023-05-10T16:03:37;18.70;99.90